Coyanosa, Texas
Current Conditions -  °F | °C
As of 10:53 AM on Saturday 22 Nov 2014 (Local Time) from KFST Reporting Station
Clear Clear  
Wind Chill: 60°   Ceiling: Unl
Heat Index: 60°   Visibility: 10mi
Dew Point: 50°   Wind: 13mph
Humidity: 69%   Direction: 270°W
Pressure: 29.96"   Gusts: NA
Location:  31.24°N, 103.06°W
Report Text: KFST 221653Z AUTO 27011KT 10SM CLR 16/10 A2996 RMK AO2 SLP114 T01560100
Loading
Personal Weather Stations






























Interactive Weather Map New forecast layout! Learn more

10-Day Weather Forecast

Advertisements
Track Severe Weather on mobile